Detalii statie MIRACOM [00001CFF]

Toti senzorii

Date Temperatura solului [C]Precipitatii [mm]Voltaj baterie [mV]Leaf Wetness [Min]HC Air temperature [C]HC Relative humidity [%]Punctul de roua [C]
medieminmaxsumaultimatimpmedieminmaxmediemediemin
2019-08-15 19:00:00 25.4 25.1 25.8 0 7070 22.56 21.65 23.16 43.48 9.2 9
2019-08-15 20:00:00 24.5 24.2 25 0 6992 20.66 20.27 21.42 47.7 8.9 8.8
2019-08-15 21:00:00 23.7 23.4 24.2 0 6982 19.94 19.63 20.34 48.76 8.7 8.3
2019-08-15 22:00:00 23 22.7 23.4 0 6992 18.9 18.38 19.46 49.9 8 7.4
2019-08-15 23:00:00 22.3 22 22.6 0 6972 18 17.54 18.33 49.05 6.9 5.8
2019-08-16 00:00:00 21.8 21.7 22.1 0 6962 17.55 17.39 17.68 44.39 5.1 4.4
2019-08-16 01:00:00 21.4 21.2 21.6 0 6952 17.53 17.43 17.64 41 3.8 2.3
2019-08-16 02:00:00 21.1 21 21.4 0 6952 17.7 17.65 17.78 35.47 2 1.6
2019-08-16 03:00:00 20.8 20.7 20.9 0 6942 17.7 17.67 17.77 38.08 3 2
2019-08-16 04:00:00 20.7 20.6 20.8 0 6922 17.08 16.67 17.38 10.5 -1 0
2019-08-16 05:00:00 20.5 20.4 20.7 0 6922 17.37 17.28 17.47 0 0 0
2019-08-16 06:00:00 20.3 20.2 20.4 0 6922 17.3 17.15 17.49 0 0 0
2019-08-16 07:00:00 20.1 20 20.3 0 7000 17.83 17.2 18.36 0 0 0
2019-08-16 08:00:00 20 20 20.3 0 7186 18.86 18.41 20.08 5.08 0.1 0
2019-08-16 09:00:00 20.1 20 20.3 0 7314 20.75 19.78 21.56 0.11 0
2019-08-16 10:00:00 20.5 20 20.8 0 7246 21.62 20.99 22.18 1.44 0
2019-08-16 11:00:00 20.9 20.7 21.3 0 7342 22.65 21.14 24.29 1.55 0
2019-08-16 12:00:00 21.7 21.4 22.1 0 7342 24.03 23.47 24.94 4.73 -20.6 -28.4
2019-08-16 13:00:00 22.6 22.2 23 0 7342 25.04 24.43 26.35 6.76 -14.5 -17.5
2019-08-16 14:00:00 23.5 23.1 23.9 0 7342 26.2 24.94 28.33 8.62 -10.7 -15.1
2019-08-16 15:00:00 24.4 24.1 25.1 0 7332 27.08 25.93 28.2 9.27 -8.6 -9.6
2019-08-16 16:00:00 25.2 25 25.7 0 7342 27.64 26.98 28.72 8.87 -9.1 -10.9
2019-08-16 17:00:00 25.8 25.6 26 0 7176 26.49 25.73 28.03 8.93 -9.7 -12.1
2019-08-16 18:00:00 25.6 25.3 26 0 7128 25.79 25.19 26.65 9.19 -9.8 -12.1
2019-08-16 19:00:00 25.1 24.7 25.5 0 7000 24.32 23.18 25.07 12.54 -6.7 -7.8
2019-08-16 20:00:00 24.2 23.7 24.6 0 6992 21.84 20.87 23.04 17.25 -4.5 -5.8
2019-08-16 21:00:00 23.4 23.2 23.7 0 6982 20.11 19.36 20.67 21.79 -2.6 -3
2019-08-16 22:00:00 22.7 22.4 23 0 6982 18.23 17.4 19.04 25.27 -2.1 -2.8
2019-08-16 23:00:00 22.1 21.8 22.5 0 6972 18.69 18.31 19.09 22.66 -3.2 -3.7
2019-08-17 00:00:00 21.6 21.4 21.9 0 6952 19.17 18.68 19.59 23.72 -2.1 -2.8
2019-08-17 01:00:00 21.3 21.2 21.4 0 6942 19.44 19.27 19.77 25.42 -1 -2.6
2019-08-17 02:00:00 21.1 21 21.2 0 6932 19.27 18.73 19.52 26.39 -0.7 -1.1
2019-08-17 03:00:00 21 20.9 21.1 0 6932 18.5 18.14 18.84 27.41 -0.8 -1.1
2019-08-17 04:00:00 20.8 20.7 21 0 6922 17.88 17.59 18.24 29.91 -0.1 -0.7
2019-08-17 05:00:00 20.6 20.5 20.8 0 6922 17.22 16.09 17.98 31.17 -0.2 -0.6
2019-08-17 06:00:00 20.3 20.2 20.6 0 6932 15.89 14.93 17.09 36.37 0.7 0.2
2019-08-17 07:00:00 20.2 20.1 20.3 0 7098 18.26 16.96 20.21 31.01 0.6 -0.3
2019-08-17 08:00:00 20.3 20.2 20.5 0 7216 21.54 20.81 22.23 19.46 -3 -3.9
2019-08-17 09:00:00 20.7 20.5 20.9 0 7294 23.05 22.06 24.29 16.42 -4.1 -5.8
2019-08-17 10:00:00 21.3 21 21.8 0 7332 25.52 23.59 27.34 11.67 -7 -9.2
2019-08-17 11:00:00 22.2 21.7 22.7 0 7342 27.42 25.91 28.72 8.1 -10.3 -12.4
2019-08-17 12:00:00 23.4 22.9 24 0 7332 27.3 25.94 29.32 7.44 -11.6 -14.1
2019-08-17 13:00:00 24.7 24.2 25.2 0 7332 27.74 26.45 28.78 7.82 -10.6 -13
2019-08-17 14:00:00 25.6 25.4 25.8 0 7314 27.79 26.7 29.54 7.14 -11.7 -14.2
2019-08-17 15:00:00 25.7 25.6 26 0 7332 27.26 26.38 28.57 7.79 -11 -12.4
2019-08-17 16:00:00 25.9 25.8 26.3 0 7332 28.27 27.71 29 8.26 -9.1 -10.4
2019-08-17 17:00:00 26.1 26 26.3 0 7314 27.15 26.76 28.37 9.18 -9 -10.6
2019-08-17 18:00:00 25.9 25.7 26.2 0 7314 26.24 25.63 26.96 10.4 -7.7 -10